createdAt,value
2023-03-29T00:00:32.965Z,964.4731
2023-03-29T00:01:36.209Z,964.4485
2023-03-29T00:02:35.210Z,964.4785
2023-03-29T00:03:36.381Z,964.4923
2023-03-29T00:04:37.455Z,964.5854
2023-03-29T00:05:38.487Z,964.7123
2023-03-29T00:06:39.603Z,964.7900
2023-03-29T00:07:40.698Z,964.8615
2023-03-29T00:08:41.785Z,964.9816
2023-03-29T00:09:43.337Z,965.0469
2023-03-29T00:10:43.973Z,965.0454
2023-03-29T00:11:45.103Z,965.0900
2023-03-29T00:12:46.190Z,965.1215
2023-03-29T00:13:47.303Z,965.0107
2023-03-29T00:14:48.390Z,964.9846
2023-03-29T00:15:49.496Z,965.0377
2023-03-29T00:16:50.615Z,965.0877
2023-03-29T00:17:51.731Z,965.0254
2023-03-29T00:18:52.800Z,965.0908
2023-03-29T00:19:53.936Z,965.1277
2023-03-29T00:20:55.008Z,965.1223
2023-03-29T00:21:56.825Z,965.1423
2023-03-29T00:22:57.205Z,965.1808
2023-03-29T00:23:58.325Z,965.2192
2023-03-29T00:24:59.436Z,965.2654
2023-03-29T00:26:00.521Z,965.3170
2023-03-29T00:27:01.612Z,965.3162
2023-03-29T00:28:02.757Z,965.3154
2023-03-29T00:29:03.811Z,965.3130
2023-03-29T00:30:04.930Z,965.3785
2023-03-29T00:31:06.033Z,965.3608
2023-03-29T00:32:07.125Z,965.3239
2023-03-29T00:33:08.236Z,965.3608
2023-03-29T00:34:09.315Z,965.4023
2023-03-29T00:35:10.433Z,965.4885
2023-03-29T00:36:11.523Z,965.5300
2023-03-29T00:37:12.621Z,965.5008
2023-03-29T00:38:13.734Z,965.4469
2023-03-29T00:39:14.866Z,965.3885
2023-03-29T00:40:16.388Z,965.3777
2023-03-29T00:41:17.019Z,965.3362
2023-03-29T00:42:18.119Z,965.3531
2023-03-29T00:43:19.216Z,965.2723
2023-03-29T00:44:20.334Z,965.1708
2023-03-29T00:45:21.443Z,965.0654
2023-03-29T00:46:22.588Z,965.0477
2023-03-29T00:47:23.728Z,965.0646
2023-03-29T00:48:24.752Z,965.0662
2023-03-29T00:49:25.831Z,965.0608
2023-03-29T00:50:26.962Z,965.0277
2023-03-29T00:51:28.049Z,965.0192
2023-03-29T00:52:29.156Z,965.0046
2023-03-29T00:53:30.275Z,964.9746
2023-03-29T00:54:31.357Z,964.9846
2023-03-29T00:55:32.464Z,964.9761
2023-03-29T00:56:33.577Z,964.9370
2023-03-29T00:57:34.654Z,964.8908
2023-03-29T00:58:35.771Z,964.8777
2023-03-29T00:59:36.867Z,964.8638
2023-03-29T01:00:38.000Z,964.8354
2023-03-29T01:01:39.104Z,964.7977
2023-03-29T01:02:40.262Z,964.7770
2023-03-29T01:03:41.393Z,964.7631
2023-03-29T01:04:42.401Z,964.7469
2023-03-29T01:05:43.498Z,964.7546
2023-03-29T01:06:44.655Z,964.7508
2023-03-29T01:07:45.699Z,964.7685
2023-03-29T01:08:46.795Z,964.7953
2023-03-29T01:09:47.897Z,964.7946
2023-03-29T01:10:49.020Z,964.7515
2023-03-29T01:11:50.093Z,964.6962
2023-03-29T01:12:51.215Z,964.6746
2023-03-29T01:13:52.303Z,964.6623
2023-03-29T01:14:53.419Z,964.6692
2023-03-29T01:15:54.515Z,964.6923
2023-03-29T01:16:55.787Z,964.6992
2023-03-29T01:17:56.745Z,964.7069
2023-03-29T01:18:57.815Z,964.6830
2023-03-29T01:19:58.924Z,964.6439
2023-03-29T01:21:00.193Z,964.6346
2023-03-29T01:22:01.111Z,964.6392
2023-03-29T01:23:02.241Z,964.6146
2023-03-29T01:24:03.322Z,964.5777
2023-03-29T01:25:04.431Z,964.5392
2023-03-29T01:26:05.542Z,964.5123
2023-03-29T01:27:06.635Z,964.4854
2023-03-29T01:28:07.717Z,964.4631
2023-03-29T01:29:08.833Z,964.4408
2023-03-29T01:30:09.921Z,964.4062
2023-03-29T01:31:11.065Z,964.3738
2023-03-29T01:32:12.150Z,964.3307
2023-03-29T01:33:13.265Z,964.2900
2023-03-29T01:34:14.331Z,964.2646
2023-03-29T01:35:15.448Z,964.2554
2023-03-29T01:36:16.884Z,964.2423
2023-03-29T01:37:17.665Z,964.2523
2023-03-29T01:38:18.764Z,964.2446
2023-03-29T01:39:19.861Z,964.2253
2023-03-29T01:40:20.961Z,964.2200
2023-03-29T01:41:23.265Z,964.2154
2023-03-29T01:42:23.156Z,964.2261
2023-03-29T01:43:24.268Z,964.2000
2023-03-29T01:44:25.361Z,964.1923
2023-03-29T01:45:26.486Z,964.2077
2023-03-29T01:46:27.882Z,964.1677
2023-03-29T01:47:28.686Z,964.1123
2023-03-29T01:48:29.775Z,964.0723
2023-03-29T01:49:30.911Z,964.0508
2023-03-29T01:50:31.980Z,964.0431
2023-03-29T01:51:33.098Z,964.0277
2023-03-29T01:52:34.169Z,964.0031
2023-03-29T01:53:35.288Z,964.0070
2023-03-29T01:54:36.380Z,964.0185
2023-03-29T01:55:37.489Z,964.0346
2023-03-29T01:56:38.636Z,964.0369
2023-03-29T01:57:39.684Z,964.0247
2023-03-29T01:58:40.790Z,964.0162
2023-03-29T01:59:41.894Z,964.0038
2023-03-29T02:00:42.985Z,964.0046
2023-03-29T02:01:44.184Z,964.0269
2023-03-29T02:02:45.285Z,964.0369
2023-03-29T02:03:46.350Z,964.0269
2023-03-29T02:04:47.394Z,964.0323
2023-03-29T02:05:48.527Z,964.0215
2023-03-29T02:06:49.630Z,964.0100
2023-03-29T02:07:50.722Z,963.9846
2023-03-29T02:08:51.813Z,963.9370
2023-03-29T02:09:52.933Z,963.9146
2023-03-29T02:10:54.029Z,963.8931
2023-03-29T02:11:55.156Z,963.8792
2023-03-29T02:12:56.238Z,963.8661
2023-03-29T02:13:57.359Z,963.8685
2023-03-29T02:14:58.446Z,963.8362
2023-03-29T02:15:59.639Z,963.8130
2023-03-29T02:17:00.882Z,963.8416
2023-03-29T02:18:01.816Z,963.8815
2023-03-29T02:19:02.878Z,963.9323
2023-03-29T02:20:04.002Z,963.9470
2023-03-29T02:21:05.076Z,963.8915
2023-03-29T02:22:06.226Z,963.8615
2023-03-29T02:23:07.309Z,963.8939
2023-03-29T02:24:08.417Z,963.9300
2023-03-29T02:25:09.515Z,963.9231
2023-03-29T02:26:10.636Z,963.8908
2023-03-29T02:27:11.751Z,963.8754
2023-03-29T02:28:12.850Z,963.8885
2023-03-29T02:29:13.944Z,963.8992
2023-03-29T02:30:15.051Z,963.8792
2023-03-29T02:31:16.203Z,963.8362
2023-03-29T02:32:17.274Z,963.7585
2023-03-29T02:33:18.402Z,963.7261
2023-03-29T02:34:19.478Z,963.7654
2023-03-29T02:35:20.563Z,963.7715
2023-03-29T02:36:21.678Z,963.7570
2023-03-29T02:37:22.792Z,963.7462
2023-03-29T02:38:23.892Z,963.7346
2023-03-29T02:39:24.984Z,963.7000
2023-03-29T02:40:26.135Z,963.6561
2023-03-29T02:41:27.199Z,963.6600
2023-03-29T02:42:28.374Z,963.6931
2023-03-29T02:43:29.408Z,963.6923
2023-03-29T02:44:30.522Z,963.6954
2023-03-29T02:45:31.614Z,963.6838
2023-03-29T02:46:32.778Z,963.6508
2023-03-29T02:47:33.910Z,963.6477
2023-03-29T02:48:34.930Z,963.6462
2023-03-29T02:49:36.027Z,963.6285
2023-03-29T02:50:37.136Z,963.5916
2023-03-29T02:51:38.244Z,963.5762
2023-03-29T02:52:39.380Z,963.5977
2023-03-29T02:53:40.436Z,963.5969
2023-03-29T02:54:41.558Z,963.5884
2023-03-29T02:55:42.656Z,963.6439
2023-03-29T02:56:43.796Z,963.6669
2023-03-29T02:57:44.887Z,963.6539
2023-03-29T02:58:45.966Z,963.5823
2023-03-29T02:59:47.086Z,963.5807
2023-03-29T03:00:48.177Z,963.6592
2023-03-29T03:01:49.316Z,963.6708
2023-03-29T03:02:50.440Z,963.6769
2023-03-29T03:03:51.581Z,963.6623
2023-03-29T03:04:52.628Z,963.6500
2023-03-29T03:05:53.729Z,963.6115
2023-03-29T03:06:54.813Z,963.5723
2023-03-29T03:07:55.937Z,963.5346
2023-03-29T03:08:57.018Z,963.5685
2023-03-29T03:09:58.137Z,963.6031
2023-03-29T03:10:59.325Z,963.6331
2023-03-29T03:12:00.354Z,963.6423
2023-03-29T03:13:01.455Z,963.6685
2023-03-29T03:14:02.561Z,963.6877
2023-03-29T03:15:03.660Z,963.7085
2023-03-29T03:16:04.819Z,963.7077
2023-03-29T03:17:05.855Z,963.6977
2023-03-29T03:18:07.466Z,963.6830
2023-03-29T03:19:08.066Z,963.6492
2023-03-29T03:20:09.178Z,963.6516
2023-03-29T03:21:10.270Z,963.6900
2023-03-29T03:22:11.389Z,963.7531
2023-03-29T03:23:12.478Z,963.7800
2023-03-29T03:24:13.573Z,963.7823
2023-03-29T03:25:14.673Z,963.8085
2023-03-29T03:26:15.789Z,963.8185
2023-03-29T03:27:16.867Z,963.7931
2023-03-29T03:28:18.419Z,963.7715
2023-03-29T03:29:19.079Z,963.7515
2023-03-29T03:30:20.249Z,963.7285
2023-03-29T03:31:21.442Z,963.7100
2023-03-29T03:32:22.458Z,963.6954
2023-03-29T03:33:23.559Z,963.6954
2023-03-29T03:34:24.648Z,963.6892
2023-03-29T03:35:25.762Z,963.7000
2023-03-29T03:36:26.854Z,963.7023
2023-03-29T03:37:27.973Z,963.7223
2023-03-29T03:38:29.063Z,963.7115
2023-03-29T03:39:30.137Z,963.6723
2023-03-29T03:40:31.238Z,963.6692
2023-03-29T03:41:32.329Z,963.6469
2023-03-29T03:42:33.441Z,963.6238
2023-03-29T03:43:34.604Z,963.6262
2023-03-29T03:44:35.648Z,963.6431
2023-03-29T03:45:36.722Z,963.6408
2023-03-29T03:46:37.844Z,963.6208
2023-03-29T03:47:38.967Z,963.6169
2023-03-29T03:48:40.053Z,963.6815
2023-03-29T03:49:41.114Z,963.7377
2023-03-29T03:50:42.237Z,963.7338
2023-03-29T03:51:43.335Z,963.7792
2023-03-29T03:52:44.434Z,963.9392
2023-03-29T03:53:45.545Z,963.9800
2023-03-29T03:54:46.644Z,963.8792
2023-03-29T03:55:47.737Z,963.8553
2023-03-29T03:56:48.884Z,963.8100
2023-03-29T03:57:49.944Z,963.7739
2023-03-29T03:58:51.076Z,963.6985
2023-03-29T03:59:52.150Z,963.7338
2023-03-29T04:00:53.309Z,963.7100
2023-03-29T04:01:54.349Z,963.6815
2023-03-29T04:02:55.555Z,963.7254
2023-03-29T04:03:56.649Z,963.6946
2023-03-29T04:04:57.684Z,963.7023
2023-03-29T04:05:58.774Z,963.7839
2023-03-29T04:06:59.873Z,963.7508
2023-03-29T04:08:00.971Z,963.7100
2023-03-29T04:09:02.119Z,963.7662
2023-03-29T04:10:03.202Z,963.8015
2023-03-29T04:11:04.464Z,963.7462
2023-03-29T04:12:05.371Z,963.7323
2023-03-29T04:13:06.515Z,963.7931
2023-03-29T04:14:07.600Z,963.8754
2023-03-29T04:15:08.717Z,963.9000
2023-03-29T04:16:09.846Z,963.9608
2023-03-29T04:17:10.897Z,963.8946
2023-03-29T04:18:12.034Z,963.7508
2023-03-29T04:19:13.110Z,963.7538
2023-03-29T04:20:14.163Z,963.8100
2023-03-29T04:21:15.298Z,963.8500
2023-03-29T04:22:16.365Z,963.8377
2023-03-29T04:23:17.480Z,963.8608
2023-03-29T04:24:18.582Z,963.8600
2023-03-29T04:25:19.680Z,963.8962
2023-03-29T04:26:20.766Z,963.8923
2023-03-29T04:27:21.884Z,963.7861
2023-03-29T04:28:22.969Z,963.7269
2023-03-29T04:29:24.116Z,963.7669
2023-03-29T04:30:25.192Z,963.8538
2023-03-29T04:31:26.300Z,963.9654
2023-03-29T04:32:27.382Z,963.9577
2023-03-29T04:33:28.473Z,963.9454
2023-03-29T04:34:29.588Z,963.9723
2023-03-29T04:35:30.703Z,964.0269
2023-03-29T04:36:31.765Z,964.0115
2023-03-29T04:37:32.888Z,963.9930
2023-03-29T04:38:33.967Z,964.0162
2023-03-29T04:39:35.136Z,963.9977
2023-03-29T04:40:36.168Z,963.9715
2023-03-29T04:41:37.265Z,963.9385
2023-03-29T04:42:38.378Z,963.9131
2023-03-29T04:43:40.352Z,963.8985
2023-03-29T04:44:40.673Z,963.8939
2023-03-29T04:45:41.709Z,963.9354
2023-03-29T04:46:42.833Z,963.9238
2023-03-29T04:47:43.929Z,963.8369
2023-03-29T04:48:45.001Z,963.8492
2023-03-29T04:49:46.129Z,963.8815
2023-03-29T04:50:47.200Z,963.9000
2023-03-29T04:51:48.309Z,963.8870
2023-03-29T04:52:49.393Z,963.8885
2023-03-29T04:53:50.508Z,963.9084
2023-03-29T04:54:51.619Z,963.9800
2023-03-29T04:55:52.709Z,963.9892
2023-03-29T04:56:53.840Z,963.9716
2023-03-29T04:57:54.906Z,963.9900
2023-03-29T04:58:55.996Z,964.0292
2023-03-29T04:59:57.481Z,963.9992
2023-03-29T05:00:58.199Z,964.0038
2023-03-29T05:01:59.334Z,964.0316
2023-03-29T05:03:00.611Z,964.0208
2023-03-29T05:04:01.568Z,963.9908
2023-03-29T05:05:02.654Z,963.9800
2023-03-29T05:06:03.910Z,964.0569
2023-03-29T05:07:04.979Z,964.1923
2023-03-29T05:08:05.901Z,964.2839
2023-03-29T05:09:06.988Z,964.3277
2023-03-29T05:10:08.119Z,964.2769
2023-03-29T05:11:09.196Z,964.1954
2023-03-29T05:12:10.307Z,964.1354
2023-03-29T05:13:11.396Z,964.0638
2023-03-29T05:14:12.504Z,963.9808
2023-03-29T05:15:13.618Z,963.9892
2023-03-29T05:16:14.770Z,964.0154
2023-03-29T05:17:15.796Z,964.0923
2023-03-29T05:18:16.908Z,963.8984
2023-03-29T05:19:18.003Z,963.8792
2023-03-29T05:20:19.145Z,963.7669
2023-03-29T05:21:20.201Z,963.6300
2023-03-29T05:22:21.313Z,963.5846
2023-03-29T05:23:22.396Z,963.5592
2023-03-29T05:24:23.524Z,963.6177
2023-03-29T05:25:24.623Z,963.6984
2023-03-29T05:26:25.741Z,963.7969
2023-03-29T05:27:26.789Z,963.7300
2023-03-29T05:28:27.914Z,963.6808
2023-03-29T05:29:29.014Z,963.6900
2023-03-29T05:30:30.482Z,963.6738
2023-03-29T05:31:31.252Z,963.7061
2023-03-29T05:32:32.422Z,963.7677
2023-03-29T05:33:33.404Z,963.7969
2023-03-29T05:34:34.551Z,963.8054
2023-03-29T05:35:35.649Z,963.8154
2023-03-29T05:36:36.731Z,963.7670
2023-03-29T05:37:37.830Z,963.7570
2023-03-29T05:38:38.938Z,963.7985
2023-03-29T05:39:40.022Z,963.8446
2023-03-29T05:40:41.176Z,963.8377
2023-03-29T05:41:42.227Z,963.8538
2023-03-29T05:42:43.356Z,963.8808
2023-03-29T05:43:44.421Z,963.9039
2023-03-29T05:44:45.538Z,963.9308
2023-03-29T05:45:46.741Z,963.9292
2023-03-29T05:46:47.744Z,963.9161
2023-03-29T05:47:48.873Z,963.9639
2023-03-29T05:48:49.958Z,964.0100
2023-03-29T05:49:51.056Z,963.8546
2023-03-29T05:50:52.146Z,963.8008
2023-03-29T05:51:53.226Z,963.8292
2023-03-29T05:52:54.356Z,963.8223
2023-03-29T05:53:55.452Z,963.8654
2023-03-29T05:54:56.552Z,963.8915
2023-03-29T05:55:57.647Z,963.9146
2023-03-29T05:56:58.778Z,963.9592
2023-03-29T05:57:59.850Z,963.9169
2023-03-29T05:59:00.954Z,963.8169
2023-03-29T06:00:02.085Z,963.7792
2023-03-29T06:01:03.345Z,963.7639
2023-03-29T06:02:04.243Z,963.7993
2023-03-29T06:03:17.534Z,963.8331
2023-03-29T06:04:07.495Z,963.8585
2023-03-29T06:05:07.606Z,963.8800
2023-03-29T06:06:08.662Z,963.9031
2023-03-29T06:07:09.759Z,963.9208
2023-03-29T06:08:10.838Z,963.9092
2023-03-29T06:09:11.972Z,963.8931
2023-03-29T06:10:13.068Z,963.8900
2023-03-29T06:11:14.201Z,963.9200
2023-03-29T06:12:15.270Z,963.9623
2023-03-29T06:13:16.397Z,964.0300
2023-03-29T06:14:17.477Z,964.0154
2023-03-29T06:15:18.595Z,963.9592
2023-03-29T06:16:19.979Z,963.9861
2023-03-29T06:17:20.851Z,964.0269
2023-03-29T06:18:21.895Z,964.0654
2023-03-29T06:19:23.005Z,964.0739
2023-03-29T06:20:24.096Z,964.0546
2023-03-29T06:21:25.219Z,964.0807
2023-03-29T06:22:26.285Z,964.1623
2023-03-29T06:23:27.405Z,964.2608
2023-03-29T06:24:28.508Z,964.1600
2023-03-29T06:25:29.634Z,964.1177
2023-03-29T06:26:30.725Z,964.1285
2023-03-29T06:27:31.851Z,964.1038
2023-03-29T06:28:32.961Z,964.0339
2023-03-29T06:29:34.047Z,963.9754
2023-03-29T06:30:35.136Z,963.9631
2023-03-29T06:31:36.374Z,963.9930
2023-03-29T06:32:37.359Z,964.0354
2023-03-29T06:33:38.454Z,964.0485
2023-03-29T06:34:39.546Z,964.0554
2023-03-29T06:35:40.675Z,964.0608
2023-03-29T06:36:41.758Z,964.0515
2023-03-29T06:37:42.854Z,964.0408
2023-03-29T06:38:43.975Z,964.0654
2023-03-29T06:39:45.079Z,964.0800
2023-03-29T06:40:46.162Z,964.0300
2023-03-29T06:41:47.296Z,964.0008
2023-03-29T06:42:48.414Z,964.0515
2023-03-29T06:43:49.510Z,964.0877
2023-03-29T06:44:50.572Z,964.0977
2023-03-29T06:45:51.695Z,964.0961
2023-03-29T06:46:52.866Z,964.1108
2023-03-29T06:47:53.985Z,964.1577
2023-03-29T06:48:55.001Z,964.2677
2023-03-29T06:49:56.105Z,964.1392
2023-03-29T06:50:57.179Z,964.0630
2023-03-29T06:51:58.345Z,964.0900
2023-03-29T06:52:59.389Z,964.0807
2023-03-29T06:54:00.510Z,964.0423
2023-03-29T06:55:01.687Z,964.0369
2023-03-29T06:56:02.705Z,964.0615
2023-03-29T06:57:03.832Z,964.0931
2023-03-29T06:58:04.898Z,964.0916
2023-03-29T06:59:06.000Z,964.0361
2023-03-29T07:00:07.103Z,964.0070
2023-03-29T07:01:08.412Z,964.0600
2023-03-29T07:02:09.420Z,964.1038
2023-03-29T07:03:10.423Z,964.1446
2023-03-29T07:04:11.531Z,964.1985
2023-03-29T07:05:12.578Z,964.2192
2023-03-29T07:06:13.703Z,964.2269
2023-03-29T07:07:14.809Z,964.2069
2023-03-29T07:08:15.882Z,964.1654
2023-03-29T07:09:19.347Z,964.1146
2023-03-29T07:10:18.086Z,964.1270
2023-03-29T07:11:19.169Z,964.1785
2023-03-29T07:12:20.496Z,964.2400
2023-03-29T07:13:21.356Z,964.2308
2023-03-29T07:14:22.492Z,964.1892
2023-03-29T07:15:23.563Z,964.1692
2023-03-29T07:16:24.763Z,964.1769
2023-03-29T07:17:25.811Z,964.1477
2023-03-29T07:18:26.852Z,964.0923
2023-03-29T07:19:27.962Z,964.1000
2023-03-29T07:20:29.057Z,964.1046
2023-03-29T07:21:30.169Z,964.1130
2023-03-29T07:22:31.408Z,964.2023
2023-03-29T07:23:32.362Z,964.3177
2023-03-29T07:24:33.456Z,964.4100
2023-03-29T07:25:34.570Z,964.4446
2023-03-29T07:26:35.637Z,964.4008
2023-03-29T07:27:36.784Z,964.3346
2023-03-29T07:28:37.848Z,964.2708
2023-03-29T07:29:38.975Z,964.2354
2023-03-29T07:30:40.031Z,964.2047
2023-03-29T07:31:41.210Z,964.1938
2023-03-29T07:32:42.403Z,964.1516
2023-03-29T07:33:43.607Z,964.1469
2023-03-29T07:34:44.519Z,964.1761
2023-03-29T07:35:45.645Z,964.2192
2023-03-29T07:36:46.689Z,964.2400
2023-03-29T07:37:48.015Z,964.2639
2023-03-29T07:38:48.910Z,964.2346
2023-03-29T07:39:49.994Z,964.2054
2023-03-29T07:40:51.071Z,964.2253
2023-03-29T07:41:52.188Z,964.2592
2023-03-29T07:42:53.291Z,964.3138
2023-03-29T07:43:54.382Z,964.3730
2023-03-29T07:44:55.469Z,964.4254
2023-03-29T07:45:56.608Z,964.4462
2023-03-29T07:46:57.650Z,964.4423
2023-03-29T07:47:59.050Z,964.4200
2023-03-29T07:48:59.859Z,964.4200
2023-03-29T07:50:00.977Z,964.4092
2023-03-29T07:51:02.267Z,964.3823
2023-03-29T07:52:03.152Z,964.3561
2023-03-29T07:53:04.306Z,964.3362
2023-03-29T07:54:05.417Z,964.3100
2023-03-29T07:55:06.453Z,964.3162
2023-03-29T07:56:07.553Z,964.3484
2023-03-29T07:57:08.722Z,964.3400
2023-03-29T07:58:10.018Z,964.3362
2023-03-29T07:59:10.888Z,964.3538
2023-03-29T08:00:11.962Z,964.3839
2023-03-29T08:01:15.372Z,964.4285
2023-03-29T08:02:14.194Z,964.4608
2023-03-29T08:03:15.659Z,964.4723
2023-03-29T08:04:16.438Z,964.4684
2023-03-29T08:05:23.272Z,964.4485
2023-03-29T08:06:19.561Z,964.3823
2023-03-29T08:07:19.650Z,964.3523
2023-03-29T08:08:20.772Z,964.3339
2023-03-29T08:09:21.908Z,964.3185
2023-03-29T08:10:22.989Z,964.3046
2023-03-29T08:11:24.045Z,964.2823
2023-03-29T08:12:25.176Z,964.2639
2023-03-29T08:13:26.279Z,964.2585
2023-03-29T08:14:27.359Z,964.2792
2023-03-29T08:15:28.447Z,964.2916
2023-03-29T08:16:29.659Z,964.3339
2023-03-29T08:17:30.716Z,964.3592
2023-03-29T08:18:34.127Z,964.3700
2023-03-29T08:19:32.860Z,964.3862
2023-03-29T08:20:33.965Z,964.4154
2023-03-29T08:21:35.068Z,964.4500
2023-03-29T08:22:36.198Z,964.4731
2023-03-29T08:23:37.273Z,964.4877
2023-03-29T08:24:38.400Z,964.5015
2023-03-29T08:25:39.462Z,964.5139
2023-03-29T08:26:40.578Z,964.5477
2023-03-29T08:27:41.686Z,964.5847
2023-03-29T08:28:43.118Z,964.5777
2023-03-29T08:29:43.877Z,964.5823
2023-03-29T08:30:45.044Z,964.5808
2023-03-29T08:31:46.064Z,964.5785
2023-03-29T08:32:49.893Z,964.5762
2023-03-29T08:33:48.530Z,964.5923
2023-03-29T08:34:49.391Z,964.5885
2023-03-29T08:35:50.532Z,964.5777
2023-03-29T08:36:51.710Z,964.5554
2023-03-29T08:37:52.847Z,964.5538
2023-03-29T08:38:53.803Z,964.5862
2023-03-29T08:39:54.863Z,964.5939
2023-03-29T08:40:55.981Z,964.5577
2023-03-29T08:41:57.073Z,964.5254
2023-03-29T08:42:58.174Z,964.5377
2023-03-29T08:43:59.282Z,964.5700
2023-03-29T08:45:00.383Z,964.6046
2023-03-29T08:46:01.513Z,964.6300
2023-03-29T08:47:02.611Z,964.6308
2023-03-29T08:48:03.708Z,964.6439
2023-03-29T08:49:04.864Z,964.6161
2023-03-29T08:50:05.931Z,964.6254
2023-03-29T08:51:09.432Z,964.6038
2023-03-29T08:52:08.209Z,964.6069
2023-03-29T08:53:09.185Z,964.6246
2023-03-29T08:54:10.295Z,964.6061
2023-03-29T08:55:11.354Z,964.5785
2023-03-29T08:56:12.454Z,964.5592
2023-03-29T08:57:13.601Z,964.5377
2023-03-29T08:58:14.642Z,964.5154
2023-03-29T08:59:24.424Z,964.5408
2023-03-29T09:00:17.823Z,964.5577
2023-03-29T09:01:18.015Z,964.5446
2023-03-29T09:02:19.270Z,964.5339
2023-03-29T09:03:20.220Z,964.5677
2023-03-29T09:04:21.245Z,964.5946
2023-03-29T09:05:22.350Z,964.6000
2023-03-29T09:06:23.422Z,964.5823
2023-03-29T09:07:26.544Z,964.5715
2023-03-29T09:08:25.636Z,964.5754
2023-03-29T09:09:26.747Z,964.6085
2023-03-29T09:10:27.830Z,964.6023
2023-03-29T09:11:28.929Z,964.5862
2023-03-29T09:12:30.062Z,964.5847
2023-03-29T09:13:31.166Z,964.5792
2023-03-29T09:14:32.250Z,964.5592
2023-03-29T09:15:33.333Z,964.5538
2023-03-29T09:16:34.538Z,964.5308
2023-03-29T09:17:35.595Z,964.5170
2023-03-29T09:18:36.609Z,964.5262
2023-03-29T09:19:37.748Z,964.5316
2023-03-29T09:20:38.819Z,964.5331
2023-03-29T09:21:39.930Z,964.5339
2023-03-29T09:22:41.093Z,964.5546
2023-03-29T09:23:42.131Z,964.5646
2023-03-29T09:24:43.231Z,964.5477
2023-03-29T09:25:53.179Z,964.5247
2023-03-29T09:26:46.440Z,964.5031
2023-03-29T09:27:46.520Z,964.4938
2023-03-29T09:28:47.626Z,964.4892
2023-03-29T09:29:48.747Z,964.4846
2023-03-29T09:30:49.809Z,964.4930
2023-03-29T09:31:50.952Z,964.5139
2023-03-29T09:32:52.137Z,964.5269
2023-03-29T09:33:53.113Z,964.5170
2023-03-29T09:34:54.219Z,964.5085
2023-03-29T09:35:55.333Z,964.5077
2023-03-29T09:36:56.414Z,964.4938
2023-03-29T09:37:57.510Z,964.4792
2023-03-29T09:38:58.601Z,964.4600
2023-03-29T09:39:59.723Z,964.4470
2023-03-29T09:41:00.911Z,964.4661
2023-03-29T09:42:01.891Z,964.4800
2023-03-29T09:43:02.979Z,964.4946
2023-03-29T09:44:04.083Z,964.5000
2023-03-29T09:45:05.193Z,964.4954
2023-03-29T09:46:06.320Z,964.5000
2023-03-29T09:47:07.402Z,964.5000
2023-03-29T09:48:08.529Z,964.4985
2023-03-29T09:49:09.603Z,964.4946
2023-03-29T09:50:19.820Z,964.4915
2023-03-29T09:51:12.775Z,964.4846
2023-03-29T09:52:12.940Z,964.4800
2023-03-29T09:53:13.980Z,964.4900
2023-03-29T09:54:15.093Z,964.5262
2023-03-29T09:55:16.234Z,964.5485
2023-03-29T09:56:17.292Z,964.5708
2023-03-29T09:57:18.437Z,964.5654
2023-03-29T09:58:19.524Z,964.5569
2023-03-29T09:59:20.570Z,964.5662
2023-03-29T10:00:21.713Z,964.5770
2023-03-29T10:01:22.862Z,964.5446
2023-03-29T10:02:23.942Z,964.5231
2023-03-29T10:03:24.987Z,964.5146
2023-03-29T10:04:26.200Z,964.4846
2023-03-29T10:05:27.571Z,964.4562
2023-03-29T10:06:28.300Z,964.4631
2023-03-29T10:07:29.391Z,964.4446
2023-03-29T10:08:30.511Z,964.4269
2023-03-29T10:09:31.581Z,964.3854
2023-03-29T10:10:32.722Z,964.3700
2023-03-29T10:11:33.801Z,964.3685
2023-03-29T10:12:34.880Z,964.3715
2023-03-29T10:13:35.975Z,964.3347
2023-03-29T10:14:37.149Z,964.3115
2023-03-29T10:15:38.180Z,964.3246
2023-03-29T10:16:39.303Z,964.3385
2023-03-29T10:17:40.435Z,964.3746
2023-03-29T10:18:41.534Z,964.4385
2023-03-29T10:19:42.551Z,964.4600
2023-03-29T10:20:43.682Z,964.4438
2023-03-29T10:21:44.757Z,964.4277
2023-03-29T10:22:45.870Z,964.4423
2023-03-29T10:23:47.087Z,964.4547
2023-03-29T10:24:48.048Z,964.4708
2023-03-29T10:25:49.165Z,964.5162
2023-03-29T10:26:50.246Z,964.5692
2023-03-29T10:27:51.336Z,964.6093
2023-03-29T10:28:52.783Z,964.6285
2023-03-29T10:29:53.523Z,964.6254
2023-03-29T10:30:54.651Z,964.6238
2023-03-29T10:31:55.781Z,964.5839
2023-03-29T10:32:56.931Z,964.5608
2023-03-29T10:33:57.908Z,964.5492
2023-03-29T10:34:59.021Z,964.5600
2023-03-29T10:36:00.617Z,964.5430
2023-03-29T10:37:01.407Z,964.5400
2023-03-29T10:38:02.276Z,964.5316
2023-03-29T10:39:05.771Z,964.5431
2023-03-29T10:40:04.493Z,964.5769
2023-03-29T10:41:05.602Z,964.5977
2023-03-29T10:42:06.667Z,964.5538
2023-03-29T10:43:07.778Z,964.5277
2023-03-29T10:44:08.869Z,964.5354
2023-03-29T10:45:09.974Z,964.5708
2023-03-29T10:46:11.159Z,964.5723
2023-03-29T10:47:12.175Z,964.3777
2023-03-29T10:48:13.268Z,964.2515
2023-03-29T10:49:14.375Z,964.3162
2023-03-29T10:50:15.484Z,964.3038
2023-03-29T10:51:16.644Z,964.2554
2023-03-29T10:52:17.638Z,964.2216
2023-03-29T10:53:18.744Z,964.2438
2023-03-29T10:54:19.817Z,964.1977
2023-03-29T10:55:20.924Z,964.1146
2023-03-29T10:56:22.028Z,964.0123
2023-03-29T10:57:23.179Z,963.9485
2023-03-29T10:58:24.191Z,963.9292
2023-03-29T10:59:25.292Z,963.8923
2023-03-29T11:00:26.397Z,963.7946
2023-03-29T11:01:27.583Z,963.6985
2023-03-29T11:02:28.640Z,963.7354
2023-03-29T11:03:29.752Z,963.7692
2023-03-29T11:04:30.796Z,963.7154
2023-03-29T11:05:31.897Z,963.6946
2023-03-29T11:06:32.997Z,963.6346
2023-03-29T11:07:34.113Z,963.6785
2023-03-29T11:08:35.172Z,963.6715
2023-03-29T11:09:36.288Z,963.7015
2023-03-29T11:10:37.373Z,963.7385
2023-03-29T11:11:38.570Z,963.8016
2023-03-29T11:12:39.569Z,963.8477
2023-03-29T11:13:40.676Z,963.8661
2023-03-29T11:14:41.761Z,963.8823
2023-03-29T11:15:42.905Z,963.8947
2023-03-29T11:16:44.087Z,963.9161
2023-03-29T11:17:45.122Z,963.9362
2023-03-29T11:18:46.147Z,963.9639
2023-03-29T11:19:47.438Z,963.9500
2023-03-29T11:20:48.364Z,963.9500
2023-03-29T11:21:49.575Z,963.9592
2023-03-29T11:22:50.552Z,963.9723
2023-03-29T11:23:51.648Z,963.9485
2023-03-29T11:24:52.722Z,963.9016
2023-03-29T11:25:53.830Z,963.8539
2023-03-29T11:26:54.933Z,963.8254
2023-03-29T11:27:56.023Z,963.7739
2023-03-29T11:28:57.117Z,963.7631
2023-03-29T11:29:58.244Z,963.7777
2023-03-29T11:30:59.348Z,963.7700
2023-03-29T11:32:00.588Z,963.7654
2023-03-29T11:33:01.641Z,963.7762
2023-03-29T11:34:02.692Z,963.7762
2023-03-29T11:35:03.784Z,963.7708
2023-03-29T11:36:05.011Z,963.7877
2023-03-29T11:37:06.020Z,963.8030
2023-03-29T11:38:07.067Z,963.7861
2023-03-29T11:39:08.176Z,963.7915
2023-03-29T11:40:09.273Z,963.8030
2023-03-29T11:41:10.382Z,963.8154
2023-03-29T11:42:11.486Z,963.8362
2023-03-29T11:43:12.587Z,963.8484
2023-03-29T11:44:13.656Z,963.8254
2023-03-29T11:45:14.790Z,963.7953
2023-03-29T11:46:15.955Z,963.7846
2023-03-29T11:47:16.972Z,963.7831
2023-03-29T11:48:18.071Z,963.7923
2023-03-29T11:49:19.170Z,963.7961
2023-03-29T11:50:20.263Z,963.7992
2023-03-29T11:51:21.377Z,963.7992
2023-03-29T11:52:22.509Z,963.7985
2023-03-29T11:53:23.558Z,963.8085
2023-03-29T11:54:24.667Z,963.8130
2023-03-29T11:55:25.757Z,963.7816
2023-03-29T11:56:26.859Z,963.7938
2023-03-29T11:57:28.021Z,963.7877